Terminal Aerodrome Forecast
Issued by NWS

Home | Current Version | Previous Version | Graphics & Text | Print | Product List | Glossary On
Versions: 1 2 3 4 5 6 7 8 9 10 11 12 13 14
188
FTUS43 KICT 221143
TAFSLN
TAF
KSLN 221143Z 2212/2312 24009KT P6SM VCSH OVC080
      TEMPO 2212/2215 6SM SHRA OVC040
     FM222300 21007KT P6SM VCTS OVC080CB
     FM230500 32011KT P6SM VCSH BKN050=

USA.gov is the U.S. government's official web portal to all federal, state and local government web resources and services.